Time;durP1;ratioP1;P1;durP2;ratioP2;P2;SDS_P1;SDS_P2;PMS_P1;PMS_P2;Temp;Humidity;BMP_temperature;BMP_pressure;BME280_temperature;BME280_humidity;BME280_pressure;Samples;Min_cycle;Max_cycle;Signal;HPM_P1;HPM_P2
2022/07/05 00:01:48;;;;;;;7.80;2.47;;;;;;;24.49;54.65;100587.91;5092533;28;20481;-64
2022/07/05 00:04:14;;;;;;;8.23;1.80;;;;;;;24.44;54.21;100587.53;5093183;28;20212;-64
2022/07/05 00:07:17;;;;;;;5.50;1.80;;;;;;;24.35;53.80;100584.22;5092348;28;20210;-65
2022/07/05 00:09:27;;;;;;;4.00;1.80;;;;;;;24.32;54.97;100588.75;5093091;28;20210;-65
2022/07/05 00:11:53;;;;;;;7.60;1.83;;;;;;;24.38;55.08;100587.09;5091654;28;20459;-65
2022/07/05 00:14:18;;;;;;;6.00;2.10;;;;;;;24.41;54.69;100577.63;5091478;28;20681;-65
2022/07/05 00:16:44;;;;;;;7.80;1.80;;;;;;;24.43;54.72;100578.03;5091815;28;20182;-65
2022/07/05 00:19:09;;;;;;;3.90;1.60;;;;;;;24.44;54.81;100578.84;5090509;28;20718;-65
2022/07/05 00:21:34;;;;;;;3.00;1.80;;;;;;;24.44;54.53;100582.56;5092125;28;20170;-65
2022/07/05 00:24:00;;;;;;;3.10;1.60;;;;;;;24.44;54.82;100582.56;5091448;28;20198;-65
2022/07/05 00:26:25;;;;;;;2.73;1.33;;;;;;;24.43;54.59;100575.13;5090975;28;20544;-65
2022/07/05 00:28:51;;;;;;;7.10;1.80;;;;;;;24.43;54.83;100572.25;5090906;28;20282;-65
2022/07/05 00:31:16;;;;;;;2.77;1.53;;;;;;;24.44;54.85;100584.63;5091477;28;20535;-65
2022/07/05 00:33:41;;;;;;;2.43;1.23;;;;;;;24.42;54.97;100584.22;5091708;28;20163;-65
2022/07/05 00:36:07;;;;;;;2.80;1.50;;;;;;;24.40;55.09;100578.88;5090839;28;20174;-65
2022/07/05 00:38:32;;;;;;;4.13;1.70;;;;;;;24.39;54.70;100577.19;5091934;28;20183;-65
2022/07/05 00:40:58;;;;;;;4.00;1.63;;;;;;;24.37;54.84;100579.69;5092399;28;20170;-65
2022/07/05 00:43:23;;;;;;;6.80;1.73;;;;;;;24.36;54.69;100578.03;5092915;28;20189;-65
2022/07/05 00:45:49;;;;;;;8.43;1.93;;;;;;;24.32;53.98;100580.09;5091715;28;20220;-65
2022/07/05 00:48:14;;;;;;;2.97;1.50;;;;;;;24.31;54.87;100587.13;5091305;28;20186;-65
2022/07/05 00:50:42;;;;;;;3.90;1.80;;;;;;;24.31;54.72;100580.50;5091557;28;20174;-65
2022/07/05 00:53:07;;;;;;;2.47;1.40;;;;;;;24.32;55.06;100579.28;5090912;28;20183;-65
2022/07/05 00:55:33;;;;;;;4.00;1.80;;;;;;;24.32;54.77;100594.53;5090745;28;20943;-65
2022/07/05 00:57:58;;;;;;;4.40;1.23;;;;;;;24.33;54.72;100583.81;5091204;28;20269;-65
2022/07/05 01:00:24;;;;;;;4.20;1.60;;;;;;;24.33;54.24;100580.94;5092895;28;20178;-65
2022/07/05 01:02:49;;;;;;;2.00;1.10;;;;;;;24.32;54.82;100587.94;5092433;28;20212;-65
2022/07/05 01:05:15;;;;;;;3.23;1.80;;;;;;;24.31;54.83;100587.13;5091925;28;20178;-65
2022/07/05 01:07:40;;;;;;;4.60;1.47;;;;;;;24.31;54.68;100584.22;5080834;28;20230;-65
2022/07/05 01:10:06;;;;;;;5.23;1.40;;;;;;;24.31;54.58;100583.41;5070651;28;20179;-65
2022/07/05 01:12:31;;;;;;;2.43;1.40;;;;;;;24.31;54.51;100581.34;5070542;28;20206;-64
2022/07/05 01:14:57;;;;;;;2.23;1.30;;;;;;;24.31;54.65;100589.16;5074321;28;20221;-65
2022/07/05 01:17:22;;;;;;;7.10;1.80;;;;;;;24.29;53.88;100583.00;5091205;28;20576;-65
2022/07/05 01:19:48;;;;;;;3.20;1.60;;;;;;;24.27;54.63;100591.22;5085504;28;20175;-64
2022/07/05 01:22:18;;;;;;;2.90;1.50;;;;;;;24.26;54.41;100584.66;5070137;28;20228;-64
2022/07/05 01:24:47;;;;;;;3.23;1.73;;;;;;;24.25;54.57;100582.16;5086036;28;20342;-64
2022/07/05 01:27:12;;;;;;;3.27;1.77;;;;;;;24.24;54.77;100587.09;5091824;28;20423;-64
2022/07/05 01:29:38;;;;;;;3.70;1.63;;;;;;;24.24;54.50;100590.00;5073347;28;20408;-64
2022/07/05 01:32:04;;;;;;;3.10;1.33;;;;;;;24.24;54.53;100584.22;5090477;28;20195;-64
2022/07/05 01:34:33;;;;;;;3.80;1.50;;;;;;;24.24;54.69;100590.00;5089067;28;20208;-64
2022/07/05 01:36:58;;;;;;;7.13;1.60;;;;;;;24.24;54.73;100595.75;5083691;28;20179;-64
2022/07/05 01:39:23;;;;;;;3.73;1.77;;;;;;;24.25;54.54;100590.84;5067755;28;20452;-64
2022/07/05 01:41:49;;;;;;;2.83;1.53;;;;;;;24.25;54.41;100587.94;5072404;28;20409;-64
2022/07/05 01:44:14;;;;;;;2.30;1.30;;;;;;;24.25;54.42;100587.94;5084324;28;20630;-64
2022/07/05 01:46:40;;;;;;;3.00;1.43;;;;;;;24.24;54.31;100581.34;5069604;28;20178;-65
2022/07/05 01:49:09;;;;;;;2.20;1.30;;;;;;;24.23;54.36;100584.66;5090735;28;20162;-65
2022/07/05 01:52:02;;;;;;;2.40;1.30;;;;;;;24.21;54.27;100587.94;5087798;28;20296;-65
2022/07/05 01:54:28;;;;;;;4.47;1.40;;;;;;;24.23;54.52;100599.91;5088480;28;20413;-65
2022/07/05 01:56:53;;;;;;;2.10;1.30;;;;;;;24.22;54.34;100592.47;5087904;28;20503;-65
2022/07/05 01:59:19;;;;;;;4.37;1.73;;;;;;;24.22;54.32;100601.13;5089318;28;20170;-65
2022/07/05 02:01:44;;;;;;;2.50;1.47;;;;;;;24.20;54.37;100594.97;5089183;28;20221;-65
2022/07/05 02:04:10;;;;;;;3.13;1.33;;;;;;;24.20;54.56;100591.25;5089113;28;20174;-65
2022/07/05 02:06:36;;;;;;;2.17;1.30;;;;;;;24.21;54.36;100599.50;5089515;28;20194;-65
2022/07/05 02:09:02;;;;;;;2.70;1.40;;;;;;;24.20;54.39;100594.97;5091401;28;20213;-65
2022/07/05 02:11:28;;;;;;;2.93;1.53;;;;;;;24.20;54.32;100599.91;5091119;28;20455;-65
2022/07/05 02:13:53;;;;;;;4.77;1.60;;;;;;;24.18;54.27;100594.53;5090235;28;20874;-65
2022/07/05 02:16:22;;;;;;;2.80;1.47;;;;;;;24.14;53.65;100595.78;5091160;28;20170;-65
2022/07/05 02:18:47;;;;;;;3.60;1.60;;;;;;;24.13;54.07;100597.03;5090866;28;20177;-65
2022/07/05 02:21:13;;;;;;;3.30;1.60;;;;;;;24.09;53.85;100597.00;5089832;28;20432;-65
2022/07/05 02:23:39;;;;;;;3.40;1.70;;;;;;;24.07;53.48;100598.66;5090780;28;20166;-65
2022/07/05 02:26:04;;;;;;;2.93;1.43;;;;;;;24.09;53.97;100599.06;5091013;28;20175;-65
2022/07/05 02:28:30;;;;;;;2.50;1.27;;;;;;;24.07;53.69;100604.41;5090792;28;20178;-65
2022/07/05 02:30:55;;;;;;;3.20;1.60;;;;;;;24.06;53.96;100592.06;5088222;28;20209;-65
2022/07/05 02:33:21;;;;;;;3.27;1.23;;;;;;;24.06;54.04;100594.97;5089096;28;20182;-65
2022/07/05 02:35:46;;;;;;;3.83;1.67;;;;;;;24.07;54.21;100593.72;5091084;28;20625;-65
2022/07/05 02:38:11;;;;;;;4.13;1.77;;;;;;;24.08;54.13;100595.34;5090176;28;20178;-65
2022/07/05 02:40:37;;;;;;;3.27;1.47;;;;;;;24.08;54.13;100589.59;5089732;28;20231;-65
2022/07/05 02:43:02;;;;;;;2.87;1.50;;;;;;;24.09;54.05;100597.00;5090617;28;20174;-65
2022/07/05 02:45:28;;;;;;;4.03;1.87;;;;;;;24.09;54.02;100599.06;5091412;28;20637;-65
2022/07/05 02:47:54;;;;;;;7.17;2.10;;;;;;;24.09;53.96;100599.06;5089793;28;20235;-65
2022/07/05 02:50:19;;;;;;;3.80;1.30;;;;;;;24.09;53.63;100602.78;5088856;28;20188;-65
2022/07/05 02:52:45;;;;;;;3.70;1.63;;;;;;;24.08;53.68;100606.09;5089252;28;20479;-64
2022/07/05 02:55:10;;;;;;;4.30;1.50;;;;;;;24.06;53.73;100597.84;5088509;28;20200;-64
2022/07/05 02:57:39;;;;;;;3.60;1.67;;;;;;;24.06;53.90;100603.63;5088388;28;20174;-64
2022/07/05 03:00:05;;;;;;;2.30;1.20;;;;;;;24.05;53.97;100607.75;5089901;28;20197;-64
2022/07/05 03:02:30;;;;;;;3.17;1.70;;;;;;;24.05;54.19;100610.63;5072442;28;20427;-64
2022/07/05 03:04:56;;;;;;;5.37;1.50;;;;;;;24.01;53.21;100611.84;5090811;28;20420;-64
2022/07/05 03:07:21;;;;;;;3.00;1.73;;;;;;;24.00;53.53;100611.03;5082045;28;20313;-64
2022/07/05 03:09:47;;;;;;;3.80;1.70;;;;;;;23.99;53.60;100609.34;5070141;28;20229;-64
2022/07/05 03:12:12;;;;;;;2.57;1.57;;;;;;;24.00;53.87;100604.44;5073074;28;20194;-64
2022/07/05 03:14:37;;;;;;;3.17;1.57;;;;;;;24.00;53.91;100616.81;5074009;28;20178;-64
2022/07/05 03:17:03;;;;;;;2.60;1.30;;;;;;;23.98;53.59;100607.72;5086348;28;20680;-65
2022/07/05 03:19:28;;;;;;;3.40;2.00;;;;;;;23.97;53.15;100613.88;5091711;28;20244;-64
2022/07/05 03:21:54;;;;;;;5.73;1.50;;;;;;;23.96;53.41;100603.59;5074134;28;20171;-64
2022/07/05 03:24:19;;;;;;;3.80;1.90;;;;;;;23.95;53.57;100617.22;5074437;28;20223;-64
2022/07/05 03:26:45;;;;;;;4.20;1.70;;;;;;;23.97;53.51;100608.97;5078702;28;20610;-64
2022/07/05 03:29:10;;;;;;;4.53;1.57;;;;;;;23.97;53.62;100617.59;5094299;28;20174;-64
2022/07/05 03:31:36;;;;;;;4.30;1.63;;;;;;;23.97;53.58;100614.72;5094190;28;20220;-64
2022/07/05 03:34:01;;;;;;;4.33;1.63;;;;;;;23.97;53.60;100614.72;5092529;28;20190;-64
2022/07/05 03:36:27;;;;;;;3.00;1.60;;;;;;;23.97;53.53;100622.53;5092331;28;20174;-64
2022/07/05 03:38:52;;;;;;;4.07;1.70;;;;;;;23.97;53.42;100629.16;5092158;28;20166;-64
2022/07/05 03:41:17;;;;;;;2.77;1.70;;;;;;;23.96;53.26;100633.28;5092010;28;20162;-64
2022/07/05 03:43:43;;;;;;;5.60;1.50;;;;;;;23.97;53.43;100634.06;5091745;28;20212;-64
2022/07/05 03:46:08;;;;;;;5.77;2.07;;;;;;;23.96;53.15;100643.97;5090807;28;20170;-65
2022/07/05 03:48:34;;;;;;;8.60;2.30;;;;;;;23.95;53.18;100645.22;5091617;28;20197;-65
2022/07/05 03:50:59;;;;;;;4.40;1.80;;;;;;;23.94;53.02;100647.25;5091769;28;20194;-64
2022/07/05 03:53:25;;;;;;;8.00;1.90;;;;;;;23.94;53.43;100655.91;5091624;28;20611;-64
2022/07/05 03:55:50;;;;;;;3.70;1.93;;;;;;;23.93;53.40;100651.38;5089971;28;20187;-64
2022/07/05 03:58:16;;;;;;;6.63;1.90;;;;;;;23.93;53.37;100656.34;5083249;28;20185;-64
2022/07/05 04:00:41;;;;;;;8.20;2.53;;;;;;;23.94;53.57;100658.00;5091839;28;20166;-64
2022/07/05 04:03:07;;;;;;;5.27;1.50;;;;;;;23.93;53.40;100660.03;5091985;28;20184;-64
2022/07/05 04:05:32;;;;;;;5.00;2.00;;;;;;;23.92;53.20;100661.28;5092097;28;20190;-64
2022/07/05 04:07:57;;;;;;;3.30;1.70;;;;;;;23.92;53.37;100660.44;5078293;28;20245;-64
2022/07/05 04:10:23;;;;;;;3.10;1.83;;;;;;;23.91;53.00;100668.28;5072737;28;20198;-64
2022/07/05 04:12:49;;;;;;;3.30;1.67;;;;;;;23.90;53.19;100666.66;5080810;28;20711;-64
2022/07/05 04:15:14;;;;;;;6.50;1.77;;;;;;;23.90;53.11;100669.53;5092984;28;20182;-64
2022/07/05 04:18:05;;;;;;;6.57;1.97;;;;;;;23.90;53.15;100669.53;5091056;28;20182;-64
2022/07/05 04:20:31;;;;;;;4.53;1.77;;;;;;;23.90;53.20;100665.81;5078393;28;20284;-64
2022/07/05 04:22:56;;;;;;;3.60;1.67;;;;;;;23.89;53.03;100670.72;5078585;28;20432;-64
2022/07/05 04:25:22;;;;;;;4.33;1.40;;;;;;;23.90;53.33;100671.56;5090517;28;20185;-64
2022/07/05 04:27:49;;;;;;;3.73;1.60;;;;;;;23.89;52.99;100673.63;5090998;28;20170;-64
2022/07/05 04:30:15;;;;;;;7.60;1.63;;;;;;;23.89;52.93;100669.94;5089309;28;20655;-64
2022/07/05 04:32:40;;;;;;;2.63;1.63;;;;;;;23.89;53.21;100673.63;5091189;28;20464;-64
2022/07/05 04:35:06;;;;;;;3.30;1.80;;;;;;;23.89;52.96;100667.84;5071743;28;20180;-64
2022/07/05 04:37:32;;;;;;;3.97;2.07;;;;;;;23.89;53.25;100673.63;5081801;28;20196;-64
2022/07/05 04:39:57;;;;;;;4.03;1.83;;;;;;;23.89;53.07;100678.59;5092624;28;20189;-64
2022/07/05 04:42:23;;;;;;;3.53;2.00;;;;;;;23.90;53.06;100683.09;5092766;28;20166;-64
2022/07/05 04:44:48;;;;;;;3.80;1.87;;;;;;;23.94;52.99;100678.19;5092518;28;20224;-64
2022/07/05 04:47:13;;;;;;;3.67;1.70;;;;;;;23.97;52.80;100674.47;5092269;28;20174;-64
2022/07/05 04:49:39;;;;;;;3.70;1.80;;;;;;;23.98;52.93;100679.81;5092711;28;20613;-64
2022/07/05 04:52:04;;;;;;;2.87;1.97;;;;;;;23.99;53.07;100683.56;5092620;28;20210;-64
2022/07/05 04:54:30;;;;;;;3.60;1.70;;;;;;;24.00;52.96;100686.03;5092114;28;20262;-64
2022/07/05 04:56:55;;;;;;;5.70;1.90;;;;;;;24.02;52.75;100686.44;5082725;28;20175;-64
2022/07/05 04:59:21;;;;;;;4.33;1.67;;;;;;;24.04;52.94;100686.84;5071650;28;20175;-64
2022/07/05 05:01:46;;;;;;;2.63;1.77;;;;;;;24.05;52.82;100685.63;5085532;28;20167;-64
2022/07/05 05:04:11;;;;;;;5.50;2.00;;;;;;;24.05;53.16;100694.28;5092357;28;20537;-64
2022/07/05 05:06:37;;;;;;;3.80;2.07;;;;;;;24.05;52.92;100700.06;5091565;28;20190;-64
2022/07/05 05:09:02;;;;;;;4.53;2.27;;;;;;;24.05;52.95;100705.81;5092124;28;20198;-65
2022/07/05 05:11:28;;;;;;;2.87;1.83;;;;;;;24.04;53.25;100701.25;5092273;28;20205;-64
2022/07/05 05:13:54;;;;;;;4.00;1.93;;;;;;;24.02;52.86;100700.84;5089245;28;20232;-65
2022/07/05 05:16:19;;;;;;;2.93;1.77;;;;;;;24.02;53.03;100694.25;5090829;28;20173;-65
2022/07/05 05:18:44;;;;;;;3.43;1.77;;;;;;;24.03;53.11;100696.72;5092265;28;20244;-65
2022/07/05 05:21:10;;;;;;;8.70;2.17;;;;;;;24.03;53.21;100702.50;5075326;28;20523;-65
2022/07/05 05:23:35;;;;;;;4.23;1.90;;;;;;;24.04;52.93;100701.25;5071289;28;20220;-65
2022/07/05 05:26:01;;;;;;;3.70;1.90;;;;;;;24.05;53.31;100700.06;5071705;28;20179;-64
2022/07/05 05:28:26;;;;;;;5.53;1.90;;;;;;;24.07;53.08;100702.50;5090571;28;20178;-64
2022/07/05 05:30:52;;;;;;;2.70;1.67;;;;;;;24.07;53.38;100702.50;5091439;28;20660;-64
2022/07/05 05:33:17;;;;;;;2.93;1.50;;;;;;;24.08;53.21;100705.00;5091172;28;20228;-64
2022/07/05 05:35:43;;;;;;;3.43;1.80;;;;;;;24.09;53.14;100711.59;5091727;28;20174;-64
2022/07/05 05:38:11;;;;;;;3.43;1.80;;;;;;;24.09;53.12;100708.72;5091885;28;20243;-64
2022/07/05 05:40:41;;;;;;;3.70;1.77;;;;;;;24.08;53.16;100704.19;5091499;28;20182;-64
2022/07/05 05:43:06;;;;;;;6.00;2.40;;;;;;;24.07;53.03;100708.28;5090463;28;20861;-64
2022/07/05 05:45:32;;;;;;;3.50;1.97;;;;;;;24.07;53.07;100708.28;5091665;28;20504;-64
2022/07/05 05:47:58;;;;;;;5.77;1.90;;;;;;;24.06;53.19;100703.75;5091370;28;20227;-64
2022/07/05 05:50:26;;;;;;;4.10;1.70;;;;;;;24.04;53.11;100712.81;5091063;28;20645;-64
2022/07/05 05:52:51;;;;;;;3.97;1.67;;;;;;;24.03;53.24;100716.94;5091252;28;20467;-64
2022/07/05 05:55:17;;;;;;;5.23;1.87;;;;;;;24.05;53.31;100728.06;5091153;28;20477;-64
2022/07/05 05:57:42;;;;;;;2.30;1.50;;;;;;;24.06;53.25;100726.81;5090962;28;20163;-64
2022/07/05 06:00:08;;;;;;;4.00;2.07;;;;;;;24.07;53.58;100725.59;5090894;28;20174;-64
2022/07/05 06:02:34;;;;;;;5.87;1.73;;;;;;;24.07;52.87;100728.47;5091869;28;20536;-64
2022/07/05 06:04:59;;;;;;;4.80;1.83;;;;;;;24.06;53.10;100729.72;5090660;28;20435;-64
2022/07/05 06:07:25;;;;;;;4.40;1.60;;;;;;;24.07;53.30;100732.19;5089753;28;20246;-64
2022/07/05 06:09:50;;;;;;;3.93;1.50;;;;;;;24.06;53.24;100727.66;5090668;28;20621;-64
2022/07/05 06:12:16;;;;;;;4.10;1.40;;;;;;;24.06;52.54;100730.53;5089793;28;20562;-64
2022/07/05 06:14:42;;;;;;;4.37;1.83;;;;;;;24.07;52.98;100743.72;5089640;28;20254;-64
2022/07/05 06:17:08;;;;;;;3.10;1.73;;;;;;;24.09;53.02;100740.44;5089303;28;20428;-64
2022/07/05 06:19:33;;;;;;;4.87;1.80;;;;;;;24.06;52.61;100741.25;5085524;28;20515;-64
2022/07/05 06:21:58;;;;;;;3.43;1.63;;;;;;;24.04;52.65;100738.75;5070512;28;20292;-64
2022/07/05 06:24:24;;;;;;;6.70;1.97;;;;;;;24.05;52.61;100745.38;5079080;28;20542;-64
2022/07/05 06:26:49;;;;;;;4.57;1.70;;;;;;;24.04;52.97;100738.75;5090779;28;20178;-64
2022/07/05 06:29:15;;;;;;;2.90;1.60;;;;;;;24.01;52.96;100745.38;5089907;28;20174;-64
2022/07/05 06:31:40;;;;;;;4.67;1.73;;;;;;;23.98;53.00;100746.16;5091031;28;20205;-64
2022/07/05 06:34:06;;;;;;;2.73;1.80;;;;;;;23.98;53.52;100751.94;5077296;28;20190;-64
2022/07/05 06:36:31;;;;;;;3.90;1.83;;;;;;;23.95;53.11;100752.78;5072041;28;20183;-64
2022/07/05 06:38:56;;;;;;;4.20;1.90;;;;;;;23.91;52.71;100751.94;5090404;28;20460;-64
2022/07/05 06:41:22;;;;;;;4.07;1.73;;;;;;;23.80;53.35;100751.03;5090684;28;20181;-64
2022/07/05 06:43:47;;;;;;;3.47;1.53;;;;;;;23.87;53.51;100758.88;5089995;28;20170;-64
2022/07/05 06:46:13;;;;;;;3.47;1.43;;;;;;;23.85;52.54;100762.19;5089846;28;20178;-64
2022/07/05 06:48:39;;;;;;;4.47;1.53;;;;;;;23.90;52.95;100761.81;5086894;28;20187;-64
2022/07/05 06:51:04;;;;;;;3.50;1.80;;;;;;;23.88;52.62;100752.69;5068307;28;20693;-64
2022/07/05 06:53:30;;;;;;;5.00;1.60;;;;;;;23.80;53.16;100753.91;5067693;28;20413;-64
2022/07/05 06:55:55;;;;;;;4.20;1.90;;;;;;;23.50;53.02;100753.38;5068435;28;20175;-64
2022/07/05 06:58:20;;;;;;;3.67;1.87;;;;;;;23.32;53.52;100754.47;5068965;28;20198;-64
2022/07/05 07:00:46;;;;;;;6.33;1.97;;;;;;;23.53;53.11;100754.63;5076808;28;20169;-64
2022/07/05 07:03:11;;;;;;;4.00;1.80;;;;;;;23.67;52.81;100757.53;5068936;28;20172;-64
2022/07/05 07:05:37;;;;;;;4.43;2.10;;;;;;;23.58;52.32;100760.81;5077168;28;20206;-64
2022/07/05 07:10:46;;;;;;;5.43;1.63;;;;;;;23.79;52.32;100763.78;5089165;28;20205;-64
2022/07/05 07:13:12;;;;;;;5.37;1.73;;;;;;;23.52;52.78;100762.44;5088757;28;20456;-64
2022/07/05 07:15:40;;;;;;;3.00;1.47;;;;;;;23.42;52.99;100760.31;5089855;28;20171;-64
2022/07/05 07:18:06;;;;;;;3.27;1.40;;;;;;;23.59;52.76;100759.56;5088726;28;20674;-64
2022/07/05 07:20:31;;;;;;;3.63;1.70;;;;;;;23.43;53.07;100761.16;5089438;28;20420;-64
2022/07/05 07:22:57;;;;;;;2.87;1.80;;;;;;;23.46;52.89;100769.81;5089562;28;20174;-64
2022/07/05 07:25:25;;;;;;;5.93;1.80;;;;;;;23.65;52.54;100760.84;5089503;28;20595;-64
2022/07/05 07:27:53;;;;;;;5.47;1.67;;;;;;;23.64;52.64;100767.84;5089756;28;20335;-64
2022/07/05 07:30:20;;;;;;;4.00;1.77;;;;;;;23.53;51.92;100761.19;5086618;28;20427;-64
2022/07/05 07:32:46;;;;;;;3.40;1.80;;;;;;;23.61;52.70;100768.66;5089165;28;20546;-64
2022/07/05 07:35:11;;;;;;;4.17;1.70;;;;;;;23.68;51.95;100771.56;5088630;28;20787;-64
2022/07/05 07:37:37;;;;;;;5.03;1.80;;;;;;;23.75;51.95;100774.50;5089686;28;20187;-64
2022/07/05 07:40:03;;;;;;;2.70;1.30;;;;;;;23.76;52.09;100773.25;5089327;28;20576;-64
2022/07/05 07:42:29;;;;;;;2.90;1.47;;;;;;;23.62;51.67;100772.34;5089580;28;20176;-64
2022/07/05 07:44:54;;;;;;;4.47;1.50;;;;;;;23.71;52.18;100770.75;5087894;28;21052;-64
2022/07/05 07:47:20;;;;;;;3.50;1.73;;;;;;;23.75;52.07;100777.38;5089607;28;20175;-64
2022/07/05 07:49:45;;;;;;;8.40;2.47;;;;;;;23.58;52.22;100783.88;5089218;28;20550;-64
2022/07/05 07:52:11;;;;;;;4.33;1.43;;;;;;;23.69;51.67;100776.09;5087561;28;20202;-64
2022/07/05 07:54:36;;;;;;;9.50;1.83;;;;;;;23.59;51.54;100779.75;5089615;28;20170;-64
2022/07/05 07:57:05;;;;;;;4.27;2.50;;;;;;;23.26;50.14;100788.63;5090464;28;20166;-64
2022/07/05 07:59:31;;;;;;;4.43;1.67;;;;;;;23.52;52.19;100785.47;5092969;28;20174;-64
2022/07/05 08:01:56;;;;;;;3.20;1.53;;;;;;;23.60;51.67;100787.19;5091128;28;20420;-64
2022/07/05 08:04:22;;;;;;;3.33;1.80;;;;;;;23.59;51.86;100782.63;5091251;28;20423;-64
2022/07/05 08:06:47;;;;;;;5.23;2.10;;;;;;;23.57;51.73;100787.97;5090677;28;20202;-64
2022/07/05 08:09:13;;;;;;;5.50;2.10;;;;;;;23.55;51.75;100792.50;5090540;28;20190;-64
2022/07/05 08:11:39;;;;;;;3.70;1.70;;;;;;;23.61;51.34;100783.06;5090286;28;20194;-64
2022/07/05 08:14:05;;;;;;;6.07;2.07;;;;;;;23.58;51.80;100777.28;5089499;28;20625;-64
2022/07/05 08:16:30;;;;;;;6.10;1.80;;;;;;;23.67;51.53;100787.22;5091119;28;20482;-65
2022/07/05 08:21:39;;;;;;;9.20;3.70;;;;;;;23.95;54.01;100769.25;5087690;28;20170;-64
2022/07/05 08:24:09;;;;;;;11.53;3.43;;;;;;;23.93;52.73;100778.28;5089030;28;20429;-64
2022/07/05 08:26:35;;;;;;;8.77;2.30;;;;;;;23.85;53.85;100779.47;5087244;28;20233;-64
2022/07/05 08:29:03;;;;;;;11.00;3.20;;;;;;;23.96;50.24;100783.25;5088571;28;20417;-64
2022/07/05 08:31:29;;;;;;;6.50;2.20;;;;;;;23.92;50.58;100778.69;5088801;28;20863;-64
2022/07/05 08:33:55;;;;;;;8.40;2.33;;;;;;;24.19;52.92;100771.38;5088474;28;20447;-64
2022/07/05 08:36:20;;;;;;;10.20;2.77;;;;;;;24.16;51.05;100775.91;5087560;28;20420;-63
2022/07/05 08:38:45;;;;;;;8.73;2.97;;;;;;;24.32;52.02;100773.47;5089702;28;20641;-64
2022/07/05 08:41:11;;;;;;;7.10;2.40;;;;;;;24.24;51.65;100783.34;5089025;28;20680;-64
2022/07/05 08:43:39;;;;;;;8.23;2.20;;;;;;;24.17;51.75;100777.56;5089085;28;20194;-64
2022/07/05 08:46:06;;;;;;;6.93;1.93;;;;;;;24.22;52.18;100780.03;5091304;28;20265;-64
2022/07/05 08:48:31;;;;;;;5.43;2.37;;;;;;;23.95;48.69;100777.91;5091060;28;20417;-64
2022/07/05 08:50:56;;;;;;;4.60;2.00;;;;;;;23.99;47.94;100775.84;5090526;28;20473;-64
2022/07/05 08:53:22;;;;;;;4.10;1.70;;;;;;;24.12;49.25;100771.34;5087630;28;20227;-64
2022/07/05 08:55:47;;;;;;;6.17;1.80;;;;;;;24.01;47.40;100773.38;5088906;28;20194;-64
2022/07/05 08:58:13;;;;;;;16.07;5.23;;;;;;;24.21;51.78;100766.84;5088042;28;20178;-64
2022/07/05 09:00:39;;;;;;;6.13;2.23;;;;;;;24.35;51.88;100763.16;5087930;28;20174;-64
2022/07/05 09:03:05;;;;;;;4.20;1.90;;;;;;;24.20;47.07;100764.38;5085287;28;20206;-65
2022/07/05 09:05:30;;;;;;;5.33;1.97;;;;;;;24.32;49.21;100770.59;5085995;28;20207;-64
2022/07/05 09:07:58;;;;;;;7.53;2.40;;;;;;;24.31;45.86;100765.22;5087254;28;20490;-64
2022/07/05 09:10:28;;;;;;;7.73;2.00;;;;;;;24.30;49.80;100764.41;5089077;28;20179;-65
2022/07/05 09:12:54;;;;;;;4.50;1.30;;;;;;;24.24;46.39;100774.69;5088556;28;20448;-65
2022/07/05 09:15:20;;;;;;;4.30;1.90;;;;;;;24.25;49.18;100773.47;5089158;28;20497;-65
2022/07/05 09:17:46;;;;;;;3.63;1.70;;;;;;;24.21;49.91;100772.63;5087106;28;20424;-64
2022/07/05 09:20:15;;;;;;;11.30;1.73;;;;;;;24.26;47.22;100763.56;5088258;28;20175;-64
2022/07/05 09:22:44;;;;;;;6.83;1.53;;;;;;;24.28;48.13;100766.84;5088902;28;20190;-64
2022/07/05 09:25:17;;;;;;;6.13;1.90;;;;;;;24.29;47.38;100774.28;5089183;28;20413;-65
2022/07/05 09:27:59;;;;;;;4.60;1.47;;;;;;;24.32;47.99;100770.59;5090222;28;20503;-65
2022/07/05 09:30:34;;;;;;;2.40;1.33;;;;;;;24.13;47.18;100775.91;5088550;28;20435;-65
2022/07/05 09:33:17;;;;;;;4.53;1.30;;;;;;;24.23;47.97;100780.88;5089177;28;20459;-65
2022/07/05 09:35:43;;;;;;;5.10;1.83;;;;;;;24.30;48.64;100775.94;5088776;28;20416;-65
2022/07/05 09:38:22;;;;;;;4.03;1.60;;;;;;;24.31;47.80;100774.72;5080169;28;20946;-65
2022/07/05 09:40:51;;;;;;;4.97;1.77;;;;;;;24.29;48.48;100774.28;5067671;28;20409;-65
2022/07/05 09:43:18;;;;;;;3.60;1.50;;;;;;;24.34;47.95;100773.88;5082900;28;20420;-64
2022/07/05 09:45:56;;;;;;;4.77;1.50;;;;;;;24.32;47.57;100770.59;5087772;28;20521;-64
2022/07/05 09:48:22;;;;;;;4.00;1.47;;;;;;;24.39;47.73;100776.34;5086999;28;20420;-64
2022/07/05 09:50:47;;;;;;;5.00;2.10;;;;;;;24.42;47.72;100777.59;5086042;28;20457;-64
2022/07/05 09:53:13;;;;;;;3.67;1.87;;;;;;;24.49;48.38;100783.41;5053796;28;20568;-64
2022/07/05 09:55:38;;;;;;;4.23;2.30;;;;;;;24.45;48.37;100774.75;5090344;28;20174;-64
2022/07/05 09:58:04;;;;;;;4.67;1.60;;;;;;;24.50;47.48;100773.50;5089757;28;20197;-64
2022/07/05 10:00:30;;;;;;;6.37;1.70;;;;;;;24.52;46.92;100774.75;5089198;28;20182;-64
2022/07/05 10:03:02;;;;;;;5.50;1.43;;;;;;;24.49;48.41;100766.88;5088594;28;20617;-64
2022/07/05 10:05:29;;;;;;;4.93;1.50;;;;;;;24.64;46.94;100770.66;5089160;28;20170;-64
2022/07/05 10:07:56;;;;;;;5.30;1.90;;;;;;;24.71;46.74;100770.66;5089016;28;20475;-64
2022/07/05 10:10:23;;;;;;;5.17;1.47;;;;;;;24.71;49.56;100773.56;5088749;28;20455;-63
2022/07/05 10:12:49;;;;;;;6.87;1.73;;;;;;;24.77;49.01;100766.97;5087329;28;20862;-63
2022/07/05 10:15:18;;;;;;;3.93;1.73;;;;;;;24.74;48.78;100770.66;5069968;28;20454;-63
2022/07/05 10:18:10;;;;;;;2.83;1.60;;;;;;;24.83;45.69;100767.38;5088091;28;20429;-63
2022/07/05 10:20:43;;;;;;;4.57;1.60;;;;;;;24.79;45.55;100766.56;5078873;28;20433;-63
2022/07/05 10:23:09;;;;;;;2.67;1.23;;;;;;;24.85;46.81;100762.84;5087888;28;20451;-64
2022/07/05 10:25:35;;;;;;;8.80;2.13;;;;;;;24.84;48.22;100766.94;5087475;28;20435;-64
2022/07/05 10:28:00;;;;;;;4.00;1.67;;;;;;;24.86;47.55;100772.31;5087766;28;20420;-64
2022/07/05 10:30:26;;;;;;;4.80;1.57;;;;;;;24.81;47.35;100769.84;5086358;28;20549;-64
2022/07/05 10:32:51;;;;;;;2.37;1.50;;;;;;;24.77;48.05;100760.34;5086809;28;20198;-64
2022/07/05 10:35:17;;;;;;;3.40;1.70;;;;;;;24.66;44.65;100759.53;5088074;28;20174;-64
2022/07/05 10:37:42;;;;;;;2.70;1.33;;;;;;;24.69;46.94;100765.28;5089489;28;20600;-64
2022/07/05 10:40:08;;;;;;;2.50;1.30;;;;;;;24.74;46.11;100770.66;5088584;28;20181;-64
2022/07/05 10:42:41;;;;;;;4.53;1.40;;;;;;;24.82;45.34;100757.88;5065413;28;20183;-64
2022/07/05 10:45:32;;;;;;;4.20;1.47;;;;;;;24.78;46.53;100757.06;5082366;28;20189;-64
2022/07/05 10:48:21;;;;;;;4.07;1.57;;;;;;;24.78;47.28;100759.94;5077695;28;21011;-63
2022/07/05 10:50:59;;;;;;;7.50;1.80;;;;;;;24.88;47.47;100764.09;5088713;28;20923;-63
2022/07/05 10:53:32;;;;;;;4.53;1.57;;;;;;;25.05;44.53;100752.50;5088765;28;20440;-63
2022/07/05 10:56:04;;;;;;;2.63;1.50;;;;;;;25.04;44.92;100750.03;5089477;28;20432;-63
2022/07/05 10:58:33;;;;;;;3.57;1.43;;;;;;;24.93;46.26;100755.00;5088816;28;20463;-63
2022/07/05 11:01:20;;;;;;;3.57;1.63;;;;;;;24.94;46.08;100753.75;5087525;28;20479;-63
2022/07/05 11:03:49;;;;;;;3.97;1.50;;;;;;;24.88;45.56;100761.19;5069281;28;20402;-63
2022/07/05 11:06:37;;;;;;;4.77;1.20;;;;;;;24.86;45.35;100758.72;5068907;28;20453;-64
2022/07/05 11:09:03;;;;;;;3.83;1.37;;;;;;;24.85;44.82;100756.22;5066757;28;20429;-64
2022/07/05 11:11:37;;;;;;;4.00;1.50;;;;;;;24.89;43.34;100746.31;5069066;28;20457;-64
2022/07/05 11:14:25;;;;;;;5.03;1.30;;;;;;;24.88;42.44;100758.31;5086119;28;20182;-64
2022/07/05 11:17:11;;;;;;;2.70;1.20;;;;;;;24.90;41.29;100750.03;5087469;28;20424;-64
2022/07/05 11:20:05;;;;;;;3.33;1.43;;;;;;;24.88;44.02;100741.78;5087323;28;20435;-64
2022/07/05 11:22:31;;;;;;;5.03;1.43;;;;;;;24.91;44.12;100743.84;5089102;28;20420;-65
2022/07/05 11:24:57;;;;;;;3.67;1.23;;;;;;;24.93;45.23;100735.59;5086918;28;20418;-64
2022/07/05 11:27:22;;;;;;;5.00;1.37;;;;;;;25.00;45.28;100741.38;5070955;28;20174;-64
2022/07/05 11:29:52;;;;;;;4.50;1.40;;;;;;;25.00;44.42;100740.53;5088814;28;20206;-64